createdAt,value
2018-04-16T00:00:36.517Z,936.95
2018-04-16T00:01:44.559Z,936.92
2018-04-16T00:02:52.851Z,936.92
2018-04-16T00:04:00.688Z,936.90
2018-04-16T00:05:08.744Z,936.94
2018-04-16T00:06:16.906Z,936.92
2018-04-16T00:07:24.848Z,936.94
2018-04-16T00:08:33.039Z,936.92
2018-04-16T00:09:40.987Z,936.92
2018-04-16T00:10:49.066Z,936.91
2018-04-16T00:11:57.135Z,936.90
2018-04-16T00:13:05.179Z,936.88
2018-04-16T00:14:13.343Z,936.85
2018-04-16T00:15:21.322Z,936.87
2018-04-16T00:16:29.367Z,936.88
2018-04-16T00:17:37.423Z,936.85
2018-04-16T00:18:45.464Z,936.86
2018-04-16T00:19:53.777Z,936.88
2018-04-16T00:21:01.623Z,936.91
2018-04-16T00:22:09.777Z,936.91
2018-04-16T00:23:17.738Z,936.89
2018-04-16T00:24:25.807Z,936.87
2018-04-16T00:25:33.954Z,936.93
2018-04-16T00:26:41.923Z,936.91
2018-04-16T00:27:49.997Z,936.90
2018-04-16T00:28:58.053Z,936.86
2018-04-16T00:30:06.107Z,936.83
2018-04-16T00:31:14.253Z,936.80
2018-04-16T00:32:22.248Z,936.82
2018-04-16T00:33:30.311Z,936.80
2018-04-16T00:34:38.353Z,936.80
2018-04-16T00:35:46.406Z,936.81
2018-04-16T00:36:54.558Z,936.78
2018-04-16T00:38:02.763Z,936.78
2018-04-16T00:39:10.592Z,936.77
2018-04-16T00:40:18.647Z,936.80
2018-04-16T00:41:26.719Z,936.81
2018-04-16T00:42:34.851Z,936.86
2018-04-16T00:43:42.843Z,936.85
2018-04-16T00:44:50.907Z,936.86
2018-04-16T00:45:58.973Z,936.85
2018-04-16T00:47:07.023Z,936.88
2018-04-16T00:48:15.176Z,936.85
2018-04-16T00:49:23.154Z,936.86
2018-04-16T00:50:31.215Z,936.87
2018-04-16T00:51:39.271Z,936.87
2018-04-16T00:52:47.330Z,936.85
2018-04-16T00:53:55.631Z,936.88
2018-04-16T00:55:03.445Z,936.91
2018-04-16T00:56:11.505Z,936.94
2018-04-16T00:57:19.591Z,936.97
2018-04-16T00:58:27.651Z,936.94
2018-04-16T00:59:35.918Z,936.99
2018-04-16T01:00:43.770Z,936.98
2018-04-16T01:01:51.826Z,936.93
2018-04-16T01:02:59.868Z,936.94
2018-04-16T01:04:07.950Z,936.88
2018-04-16T01:05:16.091Z,936.90
2018-04-16T01:06:24.056Z,936.90
2018-04-16T01:07:32.120Z,936.91
2018-04-16T01:08:40.190Z,936.90
2018-04-16T01:09:48.355Z,936.93
2018-04-16T01:10:56.417Z,936.90
2018-04-16T01:12:04.365Z,936.89
2018-04-16T01:13:12.420Z,936.92
2018-04-16T01:14:20.491Z,936.95
2018-04-16T01:15:28.553Z,936.92
2018-04-16T01:16:36.836Z,936.90
2018-04-16T01:17:44.674Z,936.93
2018-04-16T01:18:52.742Z,936.95
2018-04-16T01:20:00.793Z,936.92
2018-04-16T01:21:08.855Z,936.93
2018-04-16T01:22:17.015Z,936.91
2018-04-16T01:23:24.954Z,936.90
2018-04-16T01:24:33.030Z,936.94
2018-04-16T01:25:41.210Z,936.92
2018-04-16T01:26:49.189Z,936.93
2018-04-16T01:27:57.321Z,936.95
2018-04-16T01:29:05.262Z,936.94
2018-04-16T01:30:13.333Z,936.98
2018-04-16T01:31:21.416Z,936.97
2018-04-16T01:32:29.462Z,936.97
2018-04-16T01:33:37.764Z,936.97
2018-04-16T01:34:45.592Z,936.99
2018-04-16T01:35:53.647Z,936.98
2018-04-16T01:37:01.722Z,936.98
2018-04-16T01:38:09.796Z,936.97
2018-04-16T01:39:17.934Z,936.98
2018-04-16T01:40:25.914Z,936.94
2018-04-16T01:41:34.193Z,936.96
2018-04-16T01:42:42.022Z,936.94
2018-04-16T01:43:50.080Z,936.95
2018-04-16T01:44:58.239Z,936.87
2018-04-16T01:46:06.230Z,936.86
2018-04-16T01:47:14.266Z,936.87
2018-04-16T01:48:22.322Z,936.86
2018-04-16T01:49:30.403Z,936.80
2018-04-16T01:50:38.584Z,936.77
2018-04-16T01:51:46.526Z,936.81
2018-04-16T01:52:54.569Z,936.77
2018-04-16T01:54:02.637Z,936.77
2018-04-16T01:55:10.699Z,936.74
2018-04-16T01:56:18.988Z,936.72
2018-04-16T01:57:26.930Z,936.72
2018-04-16T01:58:34.861Z,936.71
2018-04-16T01:59:42.944Z,936.66
2018-04-16T02:00:51.006Z,936.68
2018-04-16T02:01:59.282Z,936.62
2018-04-16T02:03:07.121Z,936.66
2018-04-16T02:04:15.173Z,936.64
2018-04-16T02:05:23.244Z,936.64
2018-04-16T02:06:31.302Z,936.64
2018-04-16T02:07:39.472Z,936.63
2018-04-16T02:08:47.439Z,936.64
2018-04-16T02:09:55.508Z,936.61
2018-04-16T02:11:03.556Z,936.55
2018-04-16T02:12:11.616Z,936.57
2018-04-16T02:13:19.928Z,936.55
2018-04-16T02:14:27.735Z,936.57
2018-04-16T02:15:35.802Z,936.60
2018-04-16T02:16:44.014Z,936.63
2018-04-16T02:17:51.932Z,936.64
2018-04-16T02:19:00.203Z,936.63
2018-04-16T02:20:08.018Z,936.64
2018-04-16T02:21:16.114Z,936.62
2018-04-16T02:22:24.150Z,936.69
2018-04-16T02:23:32.225Z,936.69
2018-04-16T02:24:40.414Z,936.65
2018-04-16T02:25:48.351Z,936.64
2018-04-16T02:26:56.431Z,936.65
2018-04-16T02:28:04.458Z,936.64
2018-04-16T02:29:12.766Z,936.63
2018-04-16T02:30:20.667Z,936.63
2018-04-16T02:31:28.635Z,936.64
2018-04-16T02:32:36.697Z,936.63
2018-04-16T02:33:44.762Z,936.65
2018-04-16T02:34:52.834Z,936.66
2018-04-16T02:36:00.995Z,936.64
2018-04-16T02:37:08.960Z,936.65
2018-04-16T02:38:17.018Z,936.65
2018-04-16T02:39:25.063Z,936.66
2018-04-16T02:40:33.158Z,936.63
2018-04-16T02:41:41.297Z,936.64
2018-04-16T02:42:49.254Z,936.62
2018-04-16T02:43:57.324Z,936.65
2018-04-16T02:45:05.605Z,936.63
2018-04-16T02:46:13.455Z,936.63
2018-04-16T02:47:21.615Z,936.62
2018-04-16T02:48:29.569Z,936.64
2018-04-16T02:49:37.651Z,936.66
2018-04-16T02:50:45.694Z,936.65
2018-04-16T02:51:53.750Z,936.66
2018-04-16T02:53:01.917Z,936.65
2018-04-16T02:54:09.876Z,936.68
2018-04-16T02:55:17.923Z,936.66
2018-04-16T02:56:26.010Z,936.71
2018-04-16T02:57:34.053Z,936.73
2018-04-16T02:58:42.233Z,936.78
2018-04-16T02:59:50.180Z,936.79
2018-04-16T03:00:58.473Z,936.79
2018-04-16T03:02:06.313Z,936.83
2018-04-16T03:03:14.368Z,936.77
2018-04-16T03:04:22.516Z,936.80
2018-04-16T03:05:30.526Z,936.85
2018-04-16T03:06:38.564Z,936.82
2018-04-16T03:07:46.624Z,936.83
2018-04-16T03:08:54.663Z,936.84
2018-04-16T03:10:02.852Z,936.89
2018-04-16T03:11:10.789Z,936.92
2018-04-16T03:12:18.861Z,936.92
2018-04-16T03:13:27.044Z,936.95
2018-04-16T03:14:34.959Z,936.96
2018-04-16T03:15:43.136Z,936.97
2018-04-16T03:16:51.325Z,936.99
2018-04-16T03:17:59.195Z,936.98
2018-04-16T03:19:07.218Z,936.96
2018-04-16T03:20:15.261Z,936.95
2018-04-16T03:21:23.437Z,937.01
2018-04-16T03:22:31.397Z,937.01
2018-04-16T03:23:39.484Z,937.04
2018-04-16T03:24:47.532Z,937.01
2018-04-16T03:25:55.577Z,937.03
2018-04-16T03:27:03.751Z,937.05
2018-04-16T03:28:11.712Z,937.10
2018-04-16T03:29:19.783Z,937.07
2018-04-16T03:30:27.834Z,937.09
2018-04-16T03:31:35.903Z,937.14
2018-04-16T03:32:44.167Z,937.10
2018-04-16T03:33:52.000Z,937.08
2018-04-16T03:35:00.082Z,937.13
2018-04-16T03:36:08.148Z,937.11
2018-04-16T03:37:16.208Z,937.19
2018-04-16T03:38:24.354Z,937.21
2018-04-16T03:39:32.330Z,937.21
2018-04-16T03:40:40.371Z,937.26
2018-04-16T03:41:48.446Z,937.24
2018-04-16T03:42:56.509Z,937.27
2018-04-16T03:44:04.773Z,937.27
2018-04-16T03:45:12.633Z,937.27
2018-04-16T03:46:20.684Z,937.30
2018-04-16T03:47:28.750Z,937.27
2018-04-16T03:48:37.055Z,937.25
2018-04-16T03:49:44.976Z,937.30
2018-04-16T03:50:52.933Z,937.34
2018-04-16T03:52:01.004Z,937.28
2018-04-16T03:53:09.050Z,937.31
2018-04-16T03:54:17.118Z,937.32
2018-04-16T03:55:25.250Z,937.33
2018-04-16T03:56:33.230Z,937.32
2018-04-16T03:57:41.299Z,937.33
2018-04-16T03:58:49.356Z,937.34
2018-04-16T03:59:57.430Z,937.36
2018-04-16T04:01:05.687Z,937.37
2018-04-16T04:02:13.535Z,937.36
2018-04-16T04:03:21.599Z,937.38
2018-04-16T04:04:29.772Z,937.38
2018-04-16T04:05:37.718Z,937.37
2018-04-16T04:06:46.004Z,937.41
2018-04-16T04:07:53.845Z,937.44
2018-04-16T04:09:01.908Z,937.43
2018-04-16T04:10:09.952Z,937.41
2018-04-16T04:11:18.019Z,937.44
2018-04-16T04:12:26.180Z,937.48
2018-04-16T04:13:34.148Z,937.50
2018-04-16T04:14:42.212Z,937.47
2018-04-16T04:15:50.256Z,937.49
2018-04-16T04:16:58.340Z,937.49
2018-04-16T04:18:06.631Z,937.53
2018-04-16T04:19:14.455Z,937.52
2018-04-16T04:20:22.616Z,937.52
2018-04-16T04:21:30.577Z,937.53
2018-04-16T04:22:38.740Z,937.59
2018-04-16T04:23:47.392Z,937.60
2018-04-16T04:24:54.806Z,937.60
2018-04-16T04:26:02.819Z,937.62
2018-04-16T04:27:10.882Z,937.63
2018-04-16T04:28:18.991Z,937.62
2018-04-16T04:29:27.114Z,937.64
2018-04-16T04:30:35.062Z,937.70
2018-04-16T04:31:43.120Z,937.68
2018-04-16T04:32:51.203Z,937.72
2018-04-16T04:33:59.249Z,937.73
2018-04-16T04:35:07.538Z,937.76
2018-04-16T04:36:15.444Z,937.76
2018-04-16T04:37:23.428Z,937.77
2018-04-16T04:38:31.502Z,937.77
2018-04-16T04:39:39.560Z,937.78
2018-04-16T04:40:47.718Z,937.80
2018-04-16T04:41:55.752Z,937.80
2018-04-16T04:43:03.725Z,937.81
2018-04-16T04:44:11.803Z,937.86
2018-04-16T04:45:19.845Z,937.86
2018-04-16T04:46:28.021Z,937.88
2018-04-16T04:47:35.973Z,937.88
2018-04-16T04:48:44.042Z,937.92
2018-04-16T04:49:52.107Z,937.92
2018-04-16T04:51:00.374Z,937.89
2018-04-16T04:52:08.454Z,937.91
2018-04-16T04:53:16.294Z,937.91
2018-04-16T04:54:24.544Z,937.94
2018-04-16T04:55:32.592Z,937.94
2018-04-16T04:56:40.498Z,937.97
2018-04-16T04:57:48.755Z,937.97
2018-04-16T04:58:56.586Z,937.94
2018-04-16T05:00:04.636Z,937.97
2018-04-16T05:01:12.719Z,937.99
2018-04-16T05:02:20.805Z,937.96
2018-04-16T05:03:29.226Z,937.94
2018-04-16T05:04:36.913Z,937.99
2018-04-16T05:05:44.932Z,938.01
2018-04-16T05:06:53.020Z,938.06
2018-04-16T05:08:01.314Z,938.09
2018-04-16T05:09:09.370Z,938.14
2018-04-16T05:10:17.197Z,938.19
2018-04-16T05:11:25.265Z,938.19
2018-04-16T05:12:33.317Z,938.21
2018-04-16T05:13:41.393Z,938.22
2018-04-16T05:14:49.671Z,938.23
2018-04-16T05:15:57.513Z,938.23
2018-04-16T05:17:05.563Z,938.23
2018-04-16T05:18:13.633Z,938.27
2018-04-16T05:19:21.687Z,938.28
2018-04-16T05:20:29.845Z,938.31
2018-04-16T05:21:37.824Z,938.31
2018-04-16T05:22:45.874Z,938.32
2018-04-16T05:23:54.161Z,938.32
2018-04-16T05:25:01.998Z,938.34
2018-04-16T05:26:10.148Z,938.34
2018-04-16T05:27:18.126Z,938.38
2018-04-16T05:28:26.188Z,938.39
2018-04-16T05:29:34.250Z,938.40
2018-04-16T05:30:42.300Z,938.35
2018-04-16T05:31:50.598Z,938.45
2018-04-16T05:32:58.424Z,938.43
2018-04-16T05:34:06.492Z,938.45
2018-04-16T05:35:14.533Z,938.47
2018-04-16T05:36:22.617Z,938.49
2018-04-16T05:37:30.760Z,938.50
2018-04-16T05:38:38.716Z,938.50
2018-04-16T05:39:47.017Z,938.52
2018-04-16T05:40:54.831Z,938.53
2018-04-16T05:42:02.921Z,938.54
2018-04-16T05:43:11.070Z,938.59
2018-04-16T05:44:19.040Z,938.59
2018-04-16T05:45:27.099Z,938.60
2018-04-16T05:46:35.128Z,938.58
2018-04-16T05:47:43.230Z,938.59
2018-04-16T05:48:51.527Z,938.59
2018-04-16T05:49:59.349Z,938.55
2018-04-16T05:51:07.403Z,938.63
2018-04-16T05:52:15.444Z,938.62
2018-04-16T05:53:23.530Z,938.63
2018-04-16T05:54:31.682Z,938.66
2018-04-16T05:55:39.748Z,938.69
2018-04-16T05:56:47.712Z,938.69
2018-04-16T05:57:55.776Z,938.69
2018-04-16T05:59:03.833Z,938.69
2018-04-16T06:00:12.128Z,938.69
2018-04-16T06:01:19.943Z,938.75
2018-04-16T06:02:28.002Z,938.74
2018-04-16T06:03:36.207Z,938.74
2018-04-16T06:04:44.121Z,938.76
2018-04-16T06:05:52.312Z,938.81
2018-04-16T06:07:00.259Z,938.82
2018-04-16T06:08:08.303Z,938.86
2018-04-16T06:09:16.378Z,938.85
2018-04-16T06:10:24.426Z,938.88
2018-04-16T06:11:32.746Z,938.90
2018-04-16T06:12:40.564Z,938.92
2018-04-16T06:13:48.632Z,938.92
2018-04-16T06:14:56.682Z,938.90
2018-04-16T06:16:04.736Z,938.90
2018-04-16T06:17:13.038Z,938.90
2018-04-16T06:18:20.873Z,938.89
2018-04-16T06:19:28.943Z,938.94
2018-04-16T06:20:37.004Z,938.92
2018-04-16T06:21:45.027Z,938.91
2018-04-16T06:22:53.217Z,938.98
2018-04-16T06:24:01.173Z,938.95
2018-04-16T06:25:09.245Z,938.97
2018-04-16T06:26:17.289Z,938.99
2018-04-16T06:27:25.659Z,939.00
2018-04-16T06:28:33.527Z,939.04
2018-04-16T06:29:41.490Z,939.06
2018-04-16T06:30:49.564Z,939.07
2018-04-16T06:31:57.613Z,939.08
2018-04-16T06:33:05.660Z,939.10
2018-04-16T06:34:13.834Z,939.11
2018-04-16T06:35:21.793Z,939.13
2018-04-16T06:36:29.849Z,939.11
2018-04-16T06:37:37.910Z,939.10
2018-04-16T06:38:45.982Z,939.14
2018-04-16T06:39:54.136Z,939.17
2018-04-16T06:41:02.107Z,939.20
2018-04-16T06:42:10.158Z,939.23
2018-04-16T06:43:18.465Z,939.25
2018-04-16T06:44:26.298Z,939.32
2018-04-16T06:45:34.446Z,939.37
2018-04-16T06:46:42.413Z,939.36
2018-04-16T06:47:50.471Z,939.38
2018-04-16T06:48:58.544Z,939.36
2018-04-16T06:50:06.596Z,939.36
2018-04-16T06:51:14.747Z,939.44
2018-04-16T06:52:22.723Z,939.46
2018-04-16T06:53:30.804Z,939.51
2018-04-16T06:54:38.866Z,939.55
2018-04-16T06:55:46.924Z,939.52
2018-04-16T06:56:55.061Z,939.46
2018-04-16T06:58:03.170Z,939.45
2018-04-16T06:59:11.364Z,939.42
2018-04-16T07:00:19.185Z,939.47
2018-04-16T07:01:27.243Z,939.49
2018-04-16T07:02:35.515Z,939.51
2018-04-16T07:03:43.380Z,939.45
2018-04-16T07:04:51.447Z,939.47
2018-04-16T07:05:59.513Z,939.53
2018-04-16T07:07:07.560Z,939.58
2018-04-16T07:08:15.713Z,939.63
2018-04-16T07:09:23.700Z,939.63
2018-04-16T07:10:31.741Z,939.56
2018-04-16T07:11:39.824Z,939.55
2018-04-16T07:12:47.899Z,939.53
2018-04-16T07:13:56.039Z,939.56
2018-04-16T07:15:04.228Z,939.56
2018-04-16T07:16:12.079Z,939.64
2018-04-16T07:17:20.142Z,939.72
2018-04-16T07:18:28.202Z,939.73
2018-04-16T07:19:36.375Z,939.74
2018-04-16T07:20:44.348Z,939.74
2018-04-16T07:21:52.417Z,939.77
2018-04-16T07:23:00.458Z,939.81
2018-04-16T07:24:08.537Z,939.70
2018-04-16T07:25:16.704Z,939.68
2018-04-16T07:26:24.655Z,939.64
2018-04-16T07:27:32.736Z,939.61
2018-04-16T07:28:40.796Z,939.57
2018-04-16T07:29:48.869Z,939.59
2018-04-16T07:30:57.168Z,939.58
2018-04-16T07:32:04.980Z,939.55
2018-04-16T07:33:13.054Z,939.53
2018-04-16T07:34:21.120Z,939.54
2018-04-16T07:35:29.177Z,939.54
2018-04-16T07:36:37.350Z,939.55
2018-04-16T07:37:45.301Z,939.57
2018-04-16T07:38:53.392Z,939.52
2018-04-16T07:40:01.469Z,939.52
2018-04-16T07:41:09.526Z,939.54
2018-04-16T07:42:17.695Z,939.55
2018-04-16T07:43:25.641Z,939.58
2018-04-16T07:44:33.704Z,939.64
2018-04-16T07:45:41.792Z,939.60
2018-04-16T07:46:49.966Z,939.65
2018-04-16T07:47:58.145Z,939.62
2018-04-16T07:49:05.997Z,939.66
2018-04-16T07:50:14.046Z,939.71
2018-04-16T07:51:22.261Z,939.69
2018-04-16T07:52:30.187Z,939.66
2018-04-16T07:53:38.355Z,939.66
2018-04-16T07:54:46.322Z,939.67
2018-04-16T07:55:54.380Z,939.72
2018-04-16T07:57:02.444Z,939.73
2018-04-16T07:58:10.513Z,939.75
2018-04-16T07:59:18.677Z,939.76
2018-04-16T08:00:26.632Z,939.76
2018-04-16T08:01:34.702Z,939.74
2018-04-16T08:02:42.999Z,939.79
2018-04-16T08:03:50.843Z,939.77
2018-04-16T08:04:59.018Z,939.79
2018-04-16T08:06:06.983Z,939.81
2018-04-16T08:07:15.014Z,939.80
2018-04-16T08:08:23.103Z,939.81
2018-04-16T08:09:31.194Z,939.86
2018-04-16T08:10:39.336Z,939.83
2018-04-16T08:11:47.296Z,939.82
2018-04-16T08:12:55.346Z,939.82
2018-04-16T08:14:03.444Z,939.82
2018-04-16T08:15:11.510Z,939.85
2018-04-16T08:16:19.663Z,939.82
2018-04-16T08:17:27.621Z,939.84
2018-04-16T08:18:35.924Z,939.81
2018-04-16T08:19:43.761Z,939.81
2018-04-16T08:20:51.821Z,939.81
2018-04-16T08:21:59.990Z,939.86
2018-04-16T08:23:07.960Z,939.83
2018-04-16T08:24:16.022Z,939.89
2018-04-16T08:25:24.086Z,939.93
2018-04-16T08:26:32.131Z,939.89
2018-04-16T08:27:40.319Z,939.93
2018-04-16T08:28:48.293Z,939.94
2018-04-16T08:29:56.355Z,939.97
2018-04-16T08:31:04.422Z,939.94
2018-04-16T08:32:12.474Z,939.92
2018-04-16T08:33:20.778Z,939.93
2018-04-16T08:34:28.691Z,939.95
2018-04-16T08:35:36.686Z,939.92
2018-04-16T08:36:44.728Z,939.92
2018-04-16T08:37:52.811Z,939.89
2018-04-16T08:39:01.096Z,939.91
2018-04-16T08:40:08.968Z,939.92
2018-04-16T08:41:17.031Z,939.93
2018-04-16T08:42:25.041Z,939.92
2018-04-16T08:43:33.137Z,939.95
2018-04-16T08:44:41.300Z,939.93
2018-04-16T08:45:49.262Z,939.94
2018-04-16T08:46:57.315Z,939.93
2018-04-16T08:48:05.379Z,939.99
2018-04-16T08:49:13.442Z,939.96
2018-04-16T08:50:21.872Z,939.94
2018-04-16T08:51:29.579Z,940.01
2018-04-16T08:52:37.689Z,940.04
2018-04-16T08:53:45.721Z,940.03
2018-04-16T08:54:53.779Z,940.02
2018-04-16T08:56:02.069Z,940.02
2018-04-16T08:57:09.912Z,940.06
2018-04-16T08:58:17.961Z,940.05
2018-04-16T08:59:26.027Z,940.05
2018-04-16T09:00:34.124Z,940.05
2018-04-16T09:01:42.255Z,940.09
2018-04-16T09:02:50.232Z,940.08
2018-04-16T09:03:58.290Z,940.11
2018-04-16T09:05:06.348Z,940.13
2018-04-16T09:06:14.529Z,940.12
2018-04-16T09:07:22.586Z,940.13
2018-04-16T09:08:30.545Z,940.18
2018-04-16T09:09:38.630Z,940.18
2018-04-16T09:10:46.686Z,940.15
2018-04-16T09:11:54.731Z,940.18
2018-04-16T09:13:03.034Z,940.17
2018-04-16T09:14:10.851Z,940.18
2018-04-16T09:15:18.955Z,940.20
2018-04-16T09:16:26.997Z,940.22
2018-04-16T09:17:35.043Z,940.26
2018-04-16T09:18:43.235Z,940.26
2018-04-16T09:19:51.205Z,940.24
2018-04-16T09:20:59.255Z,940.27
2018-04-16T09:22:07.451Z,940.26
2018-04-16T09:23:15.357Z,940.26
2018-04-16T09:24:23.544Z,940.27
2018-04-16T09:25:31.525Z,940.29
2018-04-16T09:26:39.585Z,940.28
2018-04-16T09:27:47.656Z,940.32
2018-04-16T09:28:55.719Z,940.33
2018-04-16T09:30:04.000Z,940.34
2018-04-16T09:31:11.847Z,940.31
2018-04-16T09:32:19.917Z,940.33
2018-04-16T09:33:27.984Z,940.35
2018-04-16T09:34:36.040Z,940.41
2018-04-16T09:35:44.322Z,940.45
2018-04-16T09:36:52.169Z,940.41
2018-04-16T09:38:00.460Z,940.43
2018-04-16T09:39:08.308Z,940.48
2018-04-16T09:40:16.365Z,940.44
2018-04-16T09:41:24.528Z,940.52
2018-04-16T09:42:32.503Z,940.48
2018-04-16T09:43:40.565Z,940.53
2018-04-16T09:44:48.759Z,940.54
2018-04-16T09:45:56.695Z,940.53
2018-04-16T09:47:04.842Z,940.51
2018-04-16T09:48:12.819Z,940.53
2018-04-16T09:49:20.891Z,940.51
2018-04-16T09:50:28.987Z,940.53
2018-04-16T09:51:37.025Z,940.53
2018-04-16T09:52:45.170Z,940.55
2018-04-16T09:53:53.383Z,940.54
2018-04-16T09:55:01.242Z,940.57
2018-04-16T09:56:09.292Z,940.57
2018-04-16T09:57:17.364Z,940.54
2018-04-16T09:58:25.580Z,940.56
2018-04-16T09:59:33.498Z,940.53
2018-04-16T10:00:41.563Z,940.54
2018-04-16T10:01:49.627Z,940.54
2018-04-16T10:02:57.695Z,940.52
2018-04-16T10:04:05.865Z,940.52
2018-04-16T10:05:13.839Z,940.53
2018-04-16T10:06:21.905Z,940.55
2018-04-16T10:07:29.958Z,940.53
2018-04-16T10:08:38.027Z,940.55
2018-04-16T10:09:46.328Z,940.55
2018-04-16T10:10:54.156Z,940.59
2018-04-16T10:12:02.231Z,940.60
2018-04-16T10:13:10.326Z,940.60
2018-04-16T10:14:18.365Z,940.58
2018-04-16T10:15:26.525Z,940.60
2018-04-16T10:16:34.494Z,940.61
2018-04-16T10:17:42.570Z,940.64
2018-04-16T10:18:50.637Z,940.66
2018-04-16T10:19:58.731Z,940.69
2018-04-16T10:21:06.871Z,940.73
2018-04-16T10:22:14.830Z,940.72
2018-04-16T10:23:22.915Z,940.77
2018-04-16T10:24:30.968Z,940.78
2018-04-16T10:25:39.134Z,940.77
2018-04-16T10:26:47.340Z,940.76
2018-04-16T10:27:55.156Z,940.78
2018-04-16T10:29:03.254Z,940.76
2018-04-16T10:30:11.327Z,940.79
2018-04-16T10:31:19.395Z,940.78
2018-04-16T10:32:27.595Z,940.80
2018-04-16T10:33:35.529Z,940.76
2018-04-16T10:34:43.583Z,940.73
2018-04-16T10:35:51.644Z,940.73
2018-04-16T10:36:59.729Z,940.75
2018-04-16T10:38:08.020Z,940.73
2018-04-16T10:39:15.856Z,940.71
2018-04-16T10:40:23.929Z,940.66
2018-04-16T10:41:32.218Z,940.62
2018-04-16T10:42:40.081Z,940.62
2018-04-16T10:43:48.243Z,940.59
2018-04-16T10:44:56.219Z,940.59
2018-04-16T10:46:04.281Z,940.61
2018-04-16T10:47:12.342Z,940.67
2018-04-16T10:48:20.416Z,940.73
2018-04-16T10:49:28.574Z,940.73
2018-04-16T10:50:36.558Z,940.77
2018-04-16T10:51:44.614Z,940.71
2018-04-16T10:52:52.702Z,940.77
2018-04-16T10:54:00.762Z,940.76
2018-04-16T10:55:09.044Z,940.78
2018-04-16T10:56:16.902Z,940.77
2018-04-16T10:57:25.036Z,940.78
2018-04-16T10:58:33.033Z,940.77
2018-04-16T10:59:41.108Z,940.75
2018-04-16T11:00:49.307Z,940.74
2018-04-16T11:01:57.241Z,940.75
2018-04-16T11:03:05.277Z,940.79
2018-04-16T11:04:13.358Z,940.78
2018-04-16T11:05:21.441Z,940.78
2018-04-16T11:06:29.619Z,940.78
2018-04-16T11:07:37.586Z,940.77
2018-04-16T11:08:45.623Z,940.77
2018-04-16T11:09:53.701Z,940.74
2018-04-16T11:11:01.824Z,940.77
2018-04-16T11:12:10.080Z,940.73
2018-04-16T11:13:18.010Z,940.77
2018-04-16T11:14:25.992Z,940.75
2018-04-16T11:15:34.059Z,940.74
2018-04-16T11:16:42.127Z,940.75
2018-04-16T11:17:50.299Z,940.75
2018-04-16T11:18:58.283Z,940.74
2018-04-16T11:20:06.358Z,940.78
2018-04-16T11:21:14.400Z,940.78
2018-04-16T11:22:22.467Z,940.80
2018-04-16T11:23:30.758Z,940.81
2018-04-16T11:24:38.608Z,940.78
2018-04-16T11:25:46.692Z,940.79
2018-04-16T11:26:54.738Z,940.83
2018-04-16T11:28:02.821Z,940.83
2018-04-16T11:29:10.974Z,940.84
2018-04-16T11:30:18.940Z,940.79
2018-04-16T11:31:27.152Z,940.79
2018-04-16T11:32:35.078Z,940.79
2018-04-16T11:33:43.162Z,940.78
2018-04-16T11:34:51.459Z,940.81
2018-04-16T11:35:59.288Z,940.83
2018-04-16T11:37:07.362Z,940.81
2018-04-16T11:38:15.417Z,940.86
2018-04-16T11:39:23.493Z,940.86
2018-04-16T11:40:31.663Z,940.84
2018-04-16T11:41:39.636Z,940.85
2018-04-16T11:42:47.712Z,940.88
2018-04-16T11:43:55.771Z,940.81
2018-04-16T11:45:03.935Z,940.81
2018-04-16T11:46:11.999Z,940.83
2018-04-16T11:47:19.972Z,940.88
2018-04-16T11:48:28.052Z,940.85
2018-04-16T11:49:36.106Z,940.85
2018-04-16T11:50:44.185Z,940.85
2018-04-16T11:51:52.471Z,940.84
2018-04-16T11:53:00.320Z,940.86
2018-04-16T11:54:08.389Z,940.84
2018-04-16T11:55:16.452Z,940.87
2018-04-16T11:56:24.508Z,940.82
2018-04-16T11:57:32.724Z,940.84
2018-04-16T11:58:40.656Z,940.84
2018-04-16T11:59:48.735Z,940.87
2018-04-16T12:00:56.862Z,940.81
2018-04-16T12:02:04.812Z,940.84
2018-04-16T12:03:13.015Z,940.88
2018-04-16T12:04:21.095Z,940.87
2018-04-16T12:05:29.051Z,940.89
2018-04-16T12:06:37.112Z,940.89
2018-04-16T12:07:45.157Z,940.90
2018-04-16T12:08:53.334Z,940.90
2018-04-16T12:10:01.317Z,940.91
2018-04-16T12:11:09.381Z,940.94
2018-04-16T12:12:17.435Z,940.94
2018-04-16T12:13:25.514Z,940.95
2018-04-16T12:14:33.673Z,940.98
2018-04-16T12:15:41.639Z,940.99
2018-04-16T12:16:49.935Z,941.00
2018-04-16T12:17:57.789Z,941.05
2018-04-16T12:19:05.833Z,940.97
2018-04-16T12:20:14.130Z,941.02
2018-04-16T12:21:21.967Z,941.00
2018-04-16T12:22:30.030Z,941.03
2018-04-16T12:23:38.104Z,941.00
2018-04-16T12:24:46.152Z,941.02
2018-04-16T12:25:54.322Z,941.03
2018-04-16T12:27:02.293Z,941.04
2018-04-16T12:28:10.373Z,941.02
2018-04-16T12:29:18.428Z,941.03
2018-04-16T12:30:26.480Z,941.03
2018-04-16T12:31:34.802Z,941.05
2018-04-16T12:32:42.862Z,941.03
2018-04-16T12:33:50.703Z,941.01
2018-04-16T12:34:58.818Z,941.02
2018-04-16T12:36:06.817Z,941.03
2018-04-16T12:37:15.085Z,941.03
2018-04-16T12:38:22.953Z,940.99
2018-04-16T12:39:31.029Z,941.01
2018-04-16T12:40:39.081Z,941.04
2018-04-16T12:41:47.143Z,941.03
2018-04-16T12:42:55.290Z,940.98
2018-04-16T12:44:03.289Z,941.02
2018-04-16T12:45:11.353Z,941.04
2018-04-16T12:46:19.420Z,941.04
2018-04-16T12:47:27.467Z,941.06
2018-04-16T12:48:35.776Z,941.07
2018-04-16T12:49:43.601Z,941.10
2018-04-16T12:50:51.675Z,941.11
2018-04-16T12:51:59.746Z,941.11
2018-04-16T12:53:07.804Z,941.15
2018-04-16T12:54:15.976Z,941.15
2018-04-16T12:55:23.945Z,941.14
2018-04-16T12:56:32.008Z,941.16
2018-04-16T12:57:40.057Z,941.16
2018-04-16T12:58:48.132Z,941.18
2018-04-16T12:59:56.310Z,941.20
2018-04-16T13:01:04.253Z,941.21
2018-04-16T13:02:12.326Z,941.23
2018-04-16T13:03:20.390Z,941.20
2018-04-16T13:04:28.557Z,941.21
2018-04-16T13:05:36.755Z,941.22
2018-04-16T13:06:44.588Z,941.17
2018-04-16T13:07:52.695Z,941.19
2018-04-16T13:09:00.719Z,941.15
2018-04-16T13:10:08.840Z,941.19
2018-04-16T13:11:16.959Z,941.18
2018-04-16T13:12:24.893Z,941.20
2018-04-16T13:13:32.992Z,941.20
2018-04-16T13:14:41.055Z,941.15
2018-04-16T13:15:49.105Z,941.16
2018-04-16T13:16:57.415Z,941.17
2018-04-16T13:18:05.225Z,941.18
2018-04-16T13:19:13.307Z,941.13
2018-04-16T13:20:21.482Z,941.16
2018-04-16T13:21:29.435Z,941.18
2018-04-16T13:22:40.895Z,941.20
2018-04-16T13:23:45.569Z,941.22
2018-04-16T13:24:53.621Z,941.24
2018-04-16T13:26:01.701Z,941.24
2018-04-16T13:27:09.768Z,941.26
2018-04-16T13:28:17.941Z,941.31
2018-04-16T13:29:25.893Z,941.25
2018-04-16T13:30:34.086Z,941.26
2018-04-16T13:31:42.033Z,941.28
2018-04-16T13:32:50.089Z,941.21
2018-04-16T13:33:58.262Z,941.29
2018-04-16T13:35:06.222Z,941.27
2018-04-16T13:36:14.374Z,941.23
2018-04-16T13:37:22.351Z,941.24
2018-04-16T13:38:30.417Z,941.22
2018-04-16T13:39:38.714Z,941.25
2018-04-16T13:40:46.544Z,941.25
2018-04-16T13:41:54.612Z,941.29
2018-04-16T13:43:02.686Z,941.28
2018-04-16T13:44:10.752Z,941.27
2018-04-16T13:45:18.919Z,941.31
2018-04-16T13:46:26.908Z,941.31
2018-04-16T13:47:34.916Z,941.31
2018-04-16T13:48:43.006Z,941.30
2018-04-16T13:49:51.073Z,941.30
2018-04-16T13:50:59.370Z,941.30
2018-04-16T13:52:07.326Z,941.33
2018-04-16T13:53:15.255Z,941.38
2018-04-16T13:54:23.342Z,941.36
2018-04-16T13:55:31.422Z,941.39
2018-04-16T13:56:39.574Z,941.35
2018-04-16T13:57:47.545Z,941.37
2018-04-16T13:58:55.594Z,941.39
2018-04-16T14:00:03.665Z,941.39
2018-04-16T14:01:11.748Z,941.42
2018-04-16T14:02:19.899Z,941.40
2018-04-16T14:03:27.876Z,941.41
2018-04-16T14:04:35.927Z,941.42
2018-04-16T14:05:44.008Z,941.41
2018-04-16T14:06:52.100Z,941.37
2018-04-16T14:08:00.352Z,941.40
2018-04-16T14:09:08.181Z,941.40